Time;durP1;ratioP1;P1;durP2;ratioP2;P2;SDS_P1;SDS_P2;PMS_P1;PMS_P2;Temp;Humidity;BMP_temperature;BMP_pressure;BME280_temperature;BME280_humidity;BME280_pressure;Samples;Min_cycle;Max_cycle;Signal;HPM_P1;HPM_P2
2021/12/17 14:28:27;;;;;;;7.70;3.53;;;;;;;;;;5106164;27;20404;-64
2021/12/17 14:31:15;;;;;;;8.93;2.85;;;;;;;;;;5110050;28;20040;-64
2021/12/17 14:33:57;;;;;;;8.88;2.92;;;;;;;;;;5107942;28;20379;-64
2021/12/17 14:36:38;;;;;;;9.20;3.28;;;;;;;;;;5107215;28;20035;-64
2021/12/17 14:39:18;;;;;;;5.78;2.67;;;;;;;;;;5107988;28;20499;-66
2021/12/17 14:41:59;;;;;;;6.85;2.60;;;;;;;;;;5113836;28;20043;-64
2021/12/17 14:47:05;;;;;;;8.55;2.47;;;;;;;;;;5107179;28;20032;-65
2021/12/17 15:05:26;;;;;;;11.65;4.40;;;;;;;;;;5107253;28;20372;-64
2021/12/17 15:07:54;;;;;;;10.70;3.78;;;;;;;;;;5107014;28;20575;-64
2021/12/17 15:10:22;;;;;;;8.98;4.18;;;;;;;;;;5107140;28;20038;-64
2021/12/17 15:12:48;;;;;;;9.23;4.20;;;;;;;;;;5110406;28;20071;-64
2021/12/17 15:15:18;;;;;;;8.82;3.50;;;;;;;;;;5107766;28;20257;-64
2021/12/17 15:17:45;;;;;;;9.63;3.72;;;;;;;;;;5106947;28;20205;-64
2021/12/17 15:20:12;;;;;;;10.00;4.18;;;;;;;;;;5106949;28;20077;-64
2021/12/17 15:22:38;;;;;;;9.23;4.13;;;;;;;;;;5107005;28;20487;-65
2021/12/17 15:25:05;;;;;;;10.93;4.43;;;;;;;;;;5106655;28;20020;-64
2021/12/17 15:27:33;;;;;;;8.18;4.35;;;;;;;;;;5106395;28;20568;-66
2021/12/17 15:30:00;;;;;;;8.23;3.80;;;;;;;;;;5106891;28;20094;-65
2021/12/17 15:32:26;;;;;;;7.68;3.90;;;;;;;;;;5116444;28;20227;-65
2021/12/17 15:34:52;;;;;;;8.85;4.10;;;;;;;;;;5107926;28;20024;-65
2021/12/17 15:37:18;;;;;;;27.17;5.28;;;;;;;;;;5111601;28;20324;-66
2021/12/17 15:39:43;;;;;;;11.20;6.15;;;;;;;;;;5092710;28;20039;-66
2021/12/17 15:42:10;;;;;;;17.02;7.47;;;;;;;;;;5092756;28;20489;-66
2021/12/17 15:44:36;;;;;;;19.25;9.20;;;;;;;;;;5094682;28;20460;-66
2021/12/17 15:47:02;;;;;;;18.92;10.07;;;;;;;;;;5098939;28;20526;-65
2021/12/17 15:49:27;;;;;;;20.30;9.73;;;;;;;;;;5096432;28;20028;-66
2021/12/17 15:51:53;;;;;;;17.17;8.65;;;;;;;;;;5093770;28;20032;-65
2021/12/17 15:54:18;;;;;;;15.63;8.15;;;;;;;;;;5098532;28;20031;-66
2021/12/17 15:56:46;;;;;;;15.82;7.95;;;;;;;;;;5092514;28;20518;-66
2021/12/17 15:59:12;;;;;;;17.08;8.63;;;;;;;;;;5095997;28;20736;-67
2021/12/17 16:01:38;;;;;;;16.83;8.48;;;;;;;;;;5100360;28;20051;-65
2021/12/17 16:04:04;;;;;;;13.57;7.57;;;;;;;;;;5099413;28;20200;-64
2021/12/17 16:06:30;;;;;;;13.77;7.25;;;;;;;;;;5094617;28;20070;-65
2021/12/17 16:08:58;;;;;;;13.27;7.53;;;;;;;;;;5092913;28;20020;-65
2021/12/17 16:22:01;;;;;;;14.50;7.90;;;;;;;;;;5092685;28;20028;-66
2021/12/17 16:24:26;;;;;;;12.68;8.40;;;;;;;;;;5093317;28;20024;-66
2021/12/17 16:26:54;;;;;;;16.85;8.52;;;;;;;;;;5094190;28;20366;-64
2021/12/17 16:29:20;;;;;;;16.20;9.10;;;;;;;;;;5093860;28;20028;-64
2021/12/17 16:31:47;;;;;;;15.85;9.27;;;;;;;;;;5093826;28;20020;-64
2021/12/17 16:34:12;;;;;;;14.80;8.98;;;;;;;;;;5095352;28;20036;-64
2021/12/17 16:36:39;;;;;;;15.57;9.48;;;;;;;;;;5091668;28;20035;-65
2021/12/17 16:39:09;;;;;;;19.98;9.95;;;;;;;;;;5091900;28;20020;-64
2021/12/17 16:41:36;;;;;;;13.50;8.37;;;;;;;;;;5092127;28;20020;-64
2021/12/17 16:44:05;;;;;;;19.70;8.95;;;;;;;;;;5093309;28;20270;-65
2021/12/17 16:49:05;;;;;;;15.25;7.55;;;;;;;;;;5098051;28;20028;-65
2021/12/17 16:51:31;;;;;;;20.75;10.55;;;;;;;;;;5094841;28;20257;-64
2021/12/17 16:53:57;;;;;;;24.13;10.18;;;;;;;;;;5099706;28;20439;-64
2021/12/17 16:56:24;;;;;;;16.27;7.88;;;;;;;;;;5098640;28;20035;-64
2021/12/17 16:58:49;;;;;;;19.95;8.93;;;;;;;;;;5093818;28;20073;-64
2021/12/17 17:01:15;;;;;;;14.52;7.50;;;;;;;;;;5093641;28;20243;-65
2021/12/17 17:03:41;;;;;;;15.00;7.60;;;;;;;;;;5090966;28;20434;-64
2021/12/17 17:06:06;;;;;;;18.25;8.50;;;;;;;;;;5091214;28;20023;-65
2021/12/17 17:08:32;;;;;;;16.35;7.43;;;;;;;;;;5091299;28;20024;-65
2021/12/17 17:11:14;;;;;;;31.35;11.52;;;;;;;;;;5095908;28;20028;-66
2021/12/17 17:13:40;;;;;;;39.47;17.98;;;;;;;;;;5089575;28;20020;-66
2021/12/17 17:16:06;;;;;;;17.55;7.97;;;;;;;;;;5095404;28;20337;-66
2021/12/17 17:18:33;;;;;;;19.08;9.60;;;;;;;;;;5100760;28;20311;-66
2021/12/17 17:21:01;;;;;;;17.35;7.93;;;;;;;;;;5098941;28;20066;-67
2021/12/17 17:23:32;;;;;;;19.80;8.40;;;;;;;;;;5098435;28;20085;-66
2021/12/17 17:25:58;;;;;;;17.10;6.82;;;;;;;;;;5095668;28;20024;-67
2021/12/17 17:28:23;;;;;;;16.77;7.28;;;;;;;;;;5095147;28;20399;-66
2021/12/17 17:30:52;;;;;;;18.27;8.23;;;;;;;;;;5095475;28;20358;-67
2021/12/17 17:33:18;;;;;;;13.63;6.60;;;;;;;;;;5093714;28;20024;-66
2021/12/17 17:35:44;;;;;;;18.08;7.53;;;;;;;;;;5096701;28;20020;-66
2021/12/17 17:38:09;;;;;;;17.33;7.32;;;;;;;;;;5099731;28;20028;-66
2021/12/17 17:40:37;;;;;;;14.90;7.30;;;;;;;;;;5102181;28;20307;-67
2021/12/17 17:43:05;;;;;;;15.30;7.22;;;;;;;;;;5099772;28;20077;-71
2021/12/17 17:45:34;;;;;;;19.48;8.32;;;;;;;;;;5090362;28;20032;-69
2021/12/17 17:48:00;;;;;;;20.13;7.45;;;;;;;;;;5090547;28;20049;-66
2021/12/17 17:50:25;;;;;;;15.15;7.15;;;;;;;;;;5094123;28;20235;-70
2021/12/17 17:52:51;;;;;;;28.35;9.98;;;;;;;;;;5101635;28;20246;-66
2021/12/17 17:55:16;;;;;;;29.25;12.48;;;;;;;;;;5098010;28;20437;-67
2021/12/17 17:57:42;;;;;;;48.10;17.80;;;;;;;;;;5095627;28;20043;-66
2021/12/17 18:00:08;;;;;;;25.00;12.00;;;;;;;;;;5096441;28;20074;-66
2021/12/17 18:02:34;;;;;;;34.88;12.68;;;;;;;;;;5092036;28;20034;-67
2021/12/17 18:05:02;;;;;;;27.83;11.63;;;;;;;;;;5093806;28;20024;-66
2021/12/17 18:07:27;;;;;;;20.70;10.38;;;;;;;;;;5098542;28;20031;-67
2021/12/17 18:09:52;;;;;;;31.42;10.65;;;;;;;;;;5094036;28;20028;-67
2021/12/17 18:12:18;;;;;;;21.33;9.93;;;;;;;;;;5092921;28;20146;-67
2021/12/17 18:14:43;;;;;;;21.83;9.55;;;;;;;;;;5087408;28;20023;-71
2021/12/17 18:17:09;;;;;;;19.98;9.73;;;;;;;;;;5097657;28;20315;-67
2021/12/17 18:19:36;;;;;;;26.60;12.35;;;;;;;;;;5099508;28;20043;-66
2021/12/17 18:22:03;;;;;;;23.50;12.32;;;;;;;;;;5097057;28;20272;-66
2021/12/17 18:24:28;;;;;;;26.25;13.05;;;;;;;;;;5101331;28;20020;-67
2021/12/17 18:26:53;;;;;;;25.55;12.38;;;;;;;;;;5098529;28;20036;-66
2021/12/17 18:29:19;;;;;;;22.10;11.90;;;;;;;;;;5089943;28;20082;-67
2021/12/17 18:31:44;;;;;;;30.40;12.68;;;;;;;;;;5092454;28;20061;-68
2021/12/17 18:34:10;;;;;;;25.13;12.55;;;;;;;;;;5100805;28;20054;-66
2021/12/17 18:36:35;;;;;;;23.85;11.95;;;;;;;;;;5101643;28;20036;-69
2021/12/17 18:39:02;;;;;;;23.25;11.80;;;;;;;;;;5097256;28;20043;-67
2021/12/17 18:41:42;;;;;;;21.60;12.02;;;;;;;;;;5097752;28;20074;-67
2021/12/17 18:44:08;;;;;;;22.15;12.27;;;;;;;;;;5089013;28;20458;-67
2021/12/17 18:46:36;;;;;;;25.65;14.57;;;;;;;;;;5094488;28;20101;-67
2021/12/17 18:49:04;;;;;;;18.80;11.43;;;;;;;;;;5091443;28;20028;-66
2021/12/17 18:51:30;;;;;;;22.20;12.85;;;;;;;;;;5092089;28;20024;-69
2021/12/17 18:53:55;;;;;;;19.83;11.05;;;;;;;;;;5089920;28;20024;-65
2021/12/17 18:56:25;;;;;;;26.88;14.20;;;;;;;;;;5092451;28;20024;-67
2021/12/17 18:58:52;;;;;;;24.98;12.88;;;;;;;;;;5097888;28;20034;-65
2021/12/17 19:01:18;;;;;;;23.15;12.80;;;;;;;;;;5097241;28;20209;-65
2021/12/17 19:03:43;;;;;;;26.27;15.25;;;;;;;;;;5099202;28;20338;-66
2021/12/17 19:06:08;;;;;;;21.45;12.45;;;;;;;;;;5096127;28;20107;-65
2021/12/17 19:08:34;;;;;;;18.20;11.00;;;;;;;;;;5100706;28;20099;-67
2021/12/17 19:11:00;;;;;;;26.17;14.00;;;;;;;;;;5100744;28;20020;-66
2021/12/17 19:13:26;;;;;;;28.00;14.68;;;;;;;;;;5102108;28;20051;-65
2021/12/17 19:15:53;;;;;;;27.60;14.27;;;;;;;;;;5104246;28;20219;-66
2021/12/17 19:18:27;;;;;;;26.98;15.07;;;;;;;;;;5102711;28;20209;-66
2021/12/17 19:20:53;;;;;;;28.17;14.48;;;;;;;;;;5104269;28;20121;-67
2021/12/17 19:23:19;;;;;;;26.92;14.05;;;;;;;;;;5104054;28;20247;-67
2021/12/17 19:25:45;;;;;;;25.70;13.30;;;;;;;;;;5101399;28;20027;-69
2021/12/17 19:28:12;;;;;;;23.92;13.95;;;;;;;;;;5104015;28;20094;-68
2021/12/17 19:30:38;;;;;;;24.00;13.90;;;;;;;;;;5100707;28;20035;-65
2021/12/17 19:33:06;;;;;;;26.45;13.10;;;;;;;;;;5099396;28;20028;-65
2021/12/17 19:35:32;;;;;;;26.08;13.35;;;;;;;;;;5102107;28;20252;-66
2021/12/17 19:37:57;;;;;;;22.40;13.15;;;;;;;;;;5097780;28;20024;-68
2021/12/17 19:40:23;;;;;;;25.83;13.23;;;;;;;;;;5101278;28;20107;-68
2021/12/17 19:42:49;;;;;;;22.55;12.57;;;;;;;;;;5099036;28;20200;-66
2021/12/17 19:45:15;;;;;;;20.70;12.20;;;;;;;;;;5096116;28;20128;-66
2021/12/17 19:47:59;;;;;;;23.27;12.82;;;;;;;;;;5097932;28;20038;-71
2021/12/17 19:50:24;;;;;;;23.20;12.90;;;;;;;;;;5099510;28;20052;-65
2021/12/17 19:52:50;;;;;;;20.77;12.63;;;;;;;;;;5094880;28;20471;-70
2021/12/17 19:55:16;;;;;;;23.52;12.85;;;;;;;;;;5092824;28;20078;-68
2021/12/17 19:57:42;;;;;;;23.70;13.18;;;;;;;;;;5092801;28;20432;-66
2021/12/17 20:00:10;;;;;;;24.63;13.93;;;;;;;;;;5093956;28;20020;-66
2021/12/17 20:02:42;;;;;;;23.10;12.52;;;;;;;;;;5095031;28;20039;-66
2021/12/17 20:05:08;;;;;;;25.80;13.88;;;;;;;;;;5095041;28;20020;-65
2021/12/17 20:07:34;;;;;;;27.65;15.77;;;;;;;;;;5092388;28;20036;-66
2021/12/17 20:09:59;;;;;;;37.05;18.25;;;;;;;;;;5092759;28;20036;-66
2021/12/17 20:12:25;;;;;;;38.85;19.38;;;;;;;;;;5096747;28;20112;-66
2021/12/17 20:14:51;;;;;;;35.70;19.30;;;;;;;;;;5095671;28;20478;-67
2021/12/17 20:17:18;;;;;;;36.10;17.95;;;;;;;;;;5099612;28;20069;-66
2021/12/17 20:19:45;;;;;;;33.45;16.00;;;;;;;;;;5093436;28;20027;-67
2021/12/17 20:22:11;;;;;;;31.48;15.88;;;;;;;;;;5100605;28;20031;-65
2021/12/17 20:24:38;;;;;;;30.70;15.57;;;;;;;;;;5091876;28;20027;-68
2021/12/17 20:27:05;;;;;;;28.02;14.38;;;;;;;;;;5092076;28;20139;-65
2021/12/17 20:29:32;;;;;;;33.45;15.35;;;;;;;;;;5092052;28;20035;-70
2021/12/17 20:31:59;;;;;;;30.92;14.52;;;;;;;;;;5092131;28;20024;-65
2021/12/17 20:34:24;;;;;;;23.52;13.77;;;;;;;;;;5091960;28;20028;-69
2021/12/17 20:36:50;;;;;;;27.15;14.02;;;;;;;;;;5092122;28;20168;-69
2021/12/17 20:39:17;;;;;;;28.70;14.60;;;;;;;;;;5091868;28;20035;-70
2021/12/17 20:41:46;;;;;;;26.27;13.57;;;;;;;;;;5091983;28;20034;-66
2021/12/17 20:44:12;;;;;;;26.05;13.75;;;;;;;;;;5096983;28;20215;-67
2021/12/17 20:46:40;;;;;;;24.13;13.27;;;;;;;;;;5093232;28;20151;-66
2021/12/17 20:49:07;;;;;;;26.73;13.65;;;;;;;;;;5097847;28;20056;-67
2021/12/17 20:51:33;;;;;;;24.95;13.23;;;;;;;;;;5101364;28;20024;-65
2021/12/17 20:54:00;;;;;;;26.23;14.40;;;;;;;;;;5100813;28;20039;-65
2021/12/17 20:56:26;;;;;;;26.30;13.85;;;;;;;;;;5102974;28;20036;-65
2021/12/17 20:58:51;;;;;;;26.33;14.32;;;;;;;;;;5094910;28;20035;-65
2021/12/17 21:01:17;;;;;;;24.63;14.25;;;;;;;;;;5096433;28;20027;-65
2021/12/17 21:03:42;;;;;;;23.25;12.82;;;;;;;;;;5094609;28;20020;-65
2021/12/17 21:06:08;;;;;;;25.92;14.35;;;;;;;;;;5095528;28;20024;-66
2021/12/17 21:08:34;;;;;;;22.60;13.57;;;;;;;;;;5097990;28;20081;-65
2021/12/17 21:11:00;;;;;;;23.90;13.15;;;;;;;;;;5098180;28;20107;-65
2021/12/17 21:13:27;;;;;;;25.35;13.15;;;;;;;;;;5091225;28;20111;-66
2021/12/17 21:15:53;;;;;;;26.17;13.73;;;;;;;;;;5091149;28;20039;-66
2021/12/17 21:18:19;;;;;;;23.88;13.00;;;;;;;;;;5091105;28;20050;-65
2021/12/17 21:20:49;;;;;;;24.70;13.10;;;;;;;;;;5091239;28;20031;-65
2021/12/17 21:23:16;;;;;;;19.77;12.35;;;;;;;;;;5091128;28;20063;-65
2021/12/17 21:25:43;;;;;;;26.08;13.82;;;;;;;;;;5091080;28;20055;-65
2021/12/17 21:28:09;;;;;;;24.73;12.70;;;;;;;;;;5091241;28;20052;-65
2021/12/17 21:30:35;;;;;;;23.08;12.85;;;;;;;;;;5090538;28;20048;-64
2021/12/17 21:33:00;;;;;;;26.13;13.18;;;;;;;;;;5090942;28;20048;-65
2021/12/17 21:35:26;;;;;;;29.98;13.73;;;;;;;;;;5089748;28;20028;-65
2021/12/17 21:38:03;;;;;;;24.85;14.60;;;;;;;;;;5090007;28;20031;-65
2021/12/17 21:40:31;;;;;;;19.67;11.68;;;;;;;;;;5090756;28;20391;-65
2021/12/17 21:42:59;;;;;;;25.23;14.70;;;;;;;;;;5090567;28;20024;-65
2021/12/17 21:45:25;;;;;;;23.77;12.98;;;;;;;;;;5090553;28;20024;-65
2021/12/17 21:47:51;;;;;;;21.90;12.02;;;;;;;;;;5090648;28;20032;-65
2021/12/17 21:50:20;;;;;;;23.13;12.82;;;;;;;;;;5090982;28;20170;-65
2021/12/17 21:52:46;;;;;;;21.13;12.55;;;;;;;;;;5090535;28;20020;-65
2021/12/17 21:55:12;;;;;;;29.77;14.75;;;;;;;;;;5089280;28;20032;-65
2021/12/17 21:57:38;;;;;;;21.42;11.93;;;;;;;;;;5088686;28;20507;-65
2021/12/17 22:00:07;;;;;;;23.25;12.40;;;;;;;;;;5090001;28;20022;-65
2021/12/17 22:02:32;;;;;;;27.10;14.05;;;;;;;;;;5090465;28;20017;-65
2021/12/17 22:05:02;;;;;;;27.02;15.48;;;;;;;;;;5090692;28;20023;-66
2021/12/17 22:07:28;;;;;;;26.65;15.02;;;;;;;;;;5090210;28;20038;-65
2021/12/17 22:09:58;;;;;;;25.67;14.45;;;;;;;;;;5090393;28;20032;-65
2021/12/17 22:12:26;;;;;;;23.67;14.30;;;;;;;;;;5090200;28;20048;-65
2021/12/17 22:14:52;;;;;;;27.45;15.43;;;;;;;;;;5090271;28;20031;-65
2021/12/17 22:17:18;;;;;;;27.02;14.65;;;;;;;;;;5090309;28;20028;-65
2021/12/17 22:19:48;;;;;;;27.02;14.80;;;;;;;;;;5090221;28;20031;-67
2021/12/17 22:22:18;;;;;;;26.08;14.88;;;;;;;;;;5090340;28;20487;-65
2021/12/17 22:24:43;;;;;;;25.60;15.15;;;;;;;;;;5090062;28;20028;-65
2021/12/17 22:27:09;;;;;;;24.80;14.48;;;;;;;;;;5089885;28;20044;-66
2021/12/17 22:29:34;;;;;;;26.30;14.60;;;;;;;;;;5089936;28;20018;-65
2021/12/17 22:32:00;;;;;;;27.98;15.10;;;;;;;;;;5090180;28;20024;-65
2021/12/17 22:34:29;;;;;;;22.80;12.88;;;;;;;;;;5090166;28;20020;-69
2021/12/17 22:36:54;;;;;;;20.70;12.20;;;;;;;;;;5089916;28;20032;-65
2021/12/17 22:39:20;;;;;;;22.35;12.60;;;;;;;;;;5089819;28;20054;-65
2021/12/17 22:41:47;;;;;;;25.92;13.27;;;;;;;;;;5089848;28;20391;-65
2021/12/17 22:44:19;;;;;;;24.30;13.35;;;;;;;;;;5089791;28;20327;-65
2021/12/17 22:46:48;;;;;;;23.95;14.02;;;;;;;;;;5089913;28;20066;-65
2021/12/17 22:49:14;;;;;;;22.85;12.45;;;;;;;;;;5092347;28;20031;-65
2021/12/17 22:51:40;;;;;;;21.92;12.82;;;;;;;;;;5094449;28;20412;-65
2021/12/17 22:54:06;;;;;;;21.55;12.25;;;;;;;;;;5094451;28;20024;-66
2021/12/17 22:56:32;;;;;;;23.25;12.90;;;;;;;;;;5093873;28;20471;-65
2021/12/17 22:58:58;;;;;;;25.85;13.88;;;;;;;;;;5093707;28;20609;-65
2021/12/17 23:01:33;;;;;;;23.30;12.68;;;;;;;;;;5093790;28;20481;-65
2021/12/17 23:04:14;;;;;;;23.88;12.93;;;;;;;;;;5093895;28;20024;-65
2021/12/17 23:06:44;;;;;;;25.38;12.10;;;;;;;;;;5093579;28;20487;-64
2021/12/17 23:11:41;;;;;;;22.48;12.15;;;;;;;;;;5093664;28;20031;-65
2021/12/17 23:14:08;;;;;;;22.83;12.23;;;;;;;;;;5093474;28;20027;-68
2021/12/17 23:16:35;;;;;;;20.10;11.35;;;;;;;;;;5093618;28;20082;-66
2021/12/17 23:19:01;;;;;;;18.85;10.43;;;;;;;;;;5093470;28;20050;-66
2021/12/17 23:21:26;;;;;;;18.48;10.25;;;;;;;;;;5093460;28;20486;-66
2021/12/17 23:23:52;;;;;;;19.40;10.07;;;;;;;;;;5093455;28;20035;-66
2021/12/17 23:26:18;;;;;;;17.20;9.82;;;;;;;;;;5093018;28;20043;-66
2021/12/17 23:28:44;;;;;;;16.15;9.60;;;;;;;;;;5093271;28;20030;-66
2021/12/17 23:31:10;;;;;;;17.75;10.38;;;;;;;;;;5093093;28;20071;-66
2021/12/17 23:36:05;;;;;;;20.73;11.45;;;;;;;;;;5092949;28;20108;-65
2021/12/17 23:38:31;;;;;;;17.45;9.98;;;;;;;;;;5093006;28;20032;-65
2021/12/17 23:40:57;;;;;;;19.40;10.88;;;;;;;;;;5092972;28;20031;-65
2021/12/17 23:43:25;;;;;;;21.90;11.38;;;;;;;;;;5092824;28;20021;-66
2021/12/17 23:45:55;;;;;;;18.45;10.15;;;;;;;;;;5092717;28;20046;-66
2021/12/17 23:48:22;;;;;;;23.57;10.90;;;;;;;;;;5092886;28;20584;-65
2021/12/17 23:50:48;;;;;;;18.52;10.60;;;;;;;;;;5092753;28;20073;-65
2021/12/17 23:53:14;;;;;;;18.23;10.55;;;;;;;;;;5092712;28;20088;-66
2021/12/17 23:55:40;;;;;;;18.60;10.65;;;;;;;;;;5092758;28;20120;-66
2021/12/17 23:58:06;;;;;;;19.77;9.88;;;;;;;;;;5092672;28;20036;-65
